createdAt,value
2023-03-27T00:00:02.081Z,1000.6
2023-03-27T00:01:02.067Z,1000.6
2023-03-27T00:02:01.852Z,1000.6
2023-03-27T00:03:02.216Z,1000.6
2023-03-27T00:04:02.035Z,1000.6
2023-03-27T00:05:02.055Z,1000.6
2023-03-27T00:06:01.792Z,1000.6
2023-03-27T00:07:01.855Z,1000.6
2023-03-27T00:08:01.686Z,1000.6
2023-03-27T00:09:01.811Z,1000.6
2023-03-27T00:10:01.644Z,1000.6
2023-03-27T00:11:01.720Z,1000.6
2023-03-27T00:12:01.658Z,1000.6
2023-03-27T00:13:01.777Z,1000.6
2023-03-27T00:14:01.682Z,1000.6
2023-03-27T00:15:01.793Z,1000.6
2023-03-27T00:16:02.628Z,1000.6
2023-03-27T00:17:02.370Z,1000.6
2023-03-27T00:18:02.438Z,1000.6
2023-03-27T00:19:02.290Z,1000.6
2023-03-27T00:20:02.133Z,1000.6
2023-03-27T00:21:02.213Z,1000.6
2023-03-27T00:22:02.079Z,1000.6
2023-03-27T00:23:02.148Z,1000.6
2023-03-27T00:24:02.017Z,1000.6
2023-03-27T00:25:02.158Z,1000.7
2023-03-27T00:26:01.956Z,1000.6
2023-03-27T00:27:01.965Z,1000.7
2023-03-27T00:28:01.900Z,1000.6
2023-03-27T00:29:02.035Z,1000.6
2023-03-27T00:30:01.788Z,1000.7
2023-03-27T00:31:01.912Z,1000.7
2023-03-27T00:32:02.618Z,1000.6
2023-03-27T00:33:02.753Z,1000.6
2023-03-27T00:34:02.680Z,1000.6
2023-03-27T00:35:02.542Z,1000.7
2023-03-27T00:36:02.764Z,1000.6
2023-03-27T00:37:02.548Z,1000.6
2023-03-27T00:38:02.558Z,1000.6
2023-03-27T00:39:02.495Z,1000.6
2023-03-27T00:40:02.582Z,1000.6
2023-03-27T00:41:02.715Z,1000.6
2023-03-27T00:42:02.574Z,1000.6
2023-03-27T00:43:02.552Z,1000.6
2023-03-27T00:44:02.664Z,1000.6
2023-03-27T00:45:02.640Z,1000.6
2023-03-27T00:46:01.913Z,1000.6
2023-03-27T00:47:02.642Z,1000.6
2023-03-27T00:48:02.784Z,1000.6
2023-03-27T00:49:02.616Z,1000.5
2023-03-27T00:50:02.627Z,1000.6
2023-03-27T00:51:02.680Z,1000.6
2023-03-27T00:52:02.601Z,1000.6
2023-03-27T00:53:01.743Z,1000.6
2023-03-27T00:54:02.665Z,1000.5
2023-03-27T00:55:02.598Z,1000.6
2023-03-27T00:56:02.751Z,1000.6
2023-03-27T00:57:02.809Z,1000.6
2023-03-27T00:58:02.710Z,1000.5
2023-03-27T00:59:02.602Z,1000.6
2023-03-27T01:00:02.720Z,1000.5
2023-03-27T01:01:02.650Z,1000.6
2023-03-27T01:02:02.402Z,1000.6
2023-03-27T01:03:02.414Z,1000.5
2023-03-27T01:04:02.258Z,1000.5
2023-03-27T01:05:02.196Z,1000.5
2023-03-27T01:06:02.268Z,1000.4
2023-03-27T01:07:02.632Z,1000.4
2023-03-27T01:08:02.477Z,1000.4
2023-03-27T01:09:02.315Z,1000.4
2023-03-27T01:10:02.365Z,1000.4
2023-03-27T01:11:02.244Z,1000.4
2023-03-27T01:12:02.412Z,1000.4
2023-03-27T01:13:02.381Z,1000.3
2023-03-27T01:14:02.316Z,1000.3
2023-03-27T01:15:02.372Z,1000.2
2023-03-27T01:16:02.455Z,1000.2
2023-03-27T01:18:01.942Z,1000.2
2023-03-27T01:19:01.678Z,1000.2
2023-03-27T01:20:01.777Z,1000.1
2023-03-27T01:21:01.641Z,1000.1
2023-03-27T01:22:01.724Z,1000.2
2023-03-27T01:23:02.705Z,1000.2
2023-03-27T01:24:02.660Z,1000.2
2023-03-27T01:25:01.682Z,1000.2
2023-03-27T01:26:02.740Z,1000.2
2023-03-27T01:27:01.625Z,1000.2
2023-03-27T01:28:01.738Z,1000.2
2023-03-27T01:29:01.597Z,1000.2
2023-03-27T01:30:02.731Z,1000.2
2023-03-27T01:31:01.679Z,1000.1
2023-03-27T01:32:01.951Z,1000.1
2023-03-27T01:33:02.194Z,1000.1
2023-03-27T01:34:01.999Z,1000.1
2023-03-27T01:35:06.871Z,1000.1
2023-03-27T01:36:03.005Z,1000.1
2023-03-27T01:37:01.711Z,1000.1
2023-03-27T01:38:01.744Z,1000.1
2023-03-27T01:39:01.706Z,1000.1
2023-03-27T01:40:01.782Z,1000.1
2023-03-27T01:41:01.664Z,1000
2023-03-27T01:42:01.767Z,1000
2023-03-27T01:43:01.701Z,1000
2023-03-27T01:44:01.736Z,1000
2023-03-27T01:45:01.631Z,1000
2023-03-27T01:46:02.697Z,1000
2023-03-27T01:48:02.018Z,1000
2023-03-27T01:49:01.796Z,1000
2023-03-27T01:50:01.874Z,1000
2023-03-27T01:51:01.674Z,1000.1
2023-03-27T01:52:01.860Z,1000
2023-03-27T01:53:01.728Z,1000
2023-03-27T01:54:01.866Z,1000
2023-03-27T01:55:01.750Z,999.9
2023-03-27T01:56:01.744Z,1000
2023-03-27T01:57:01.792Z,999.9
2023-03-27T01:58:01.726Z,999.9
2023-03-27T01:59:01.598Z,1000
2023-03-27T02:00:19.920Z,1000
2023-03-27T02:01:02.738Z,1000
2023-03-27T02:03:02.419Z,1000
2023-03-27T02:04:02.348Z,1000
2023-03-27T02:05:02.448Z,1000
2023-03-27T02:06:02.290Z,1000
2023-03-27T02:07:02.292Z,1000
2023-03-27T02:08:02.197Z,999.9
2023-03-27T02:09:02.194Z,1000
2023-03-27T02:10:02.120Z,999.9
2023-03-27T02:11:02.229Z,999.9
2023-03-27T02:12:02.071Z,999.8
2023-03-27T02:13:02.140Z,999.9
2023-03-27T02:14:01.999Z,999.8
2023-03-27T02:15:25.780Z,999.8
2023-03-27T02:16:02.710Z,999.9
2023-03-27T02:18:02.257Z,999.9
2023-03-27T02:19:02.046Z,999.8
2023-03-27T02:20:02.127Z,999.8
2023-03-27T02:21:01.956Z,999.8
2023-03-27T02:22:02.054Z,999.8
2023-03-27T02:23:02.326Z,999.8
2023-03-27T02:24:02.047Z,999.8
2023-03-27T02:25:02.095Z,999.7
2023-03-27T02:26:01.940Z,999.8
2023-03-27T02:27:01.918Z,999.7
2023-03-27T02:28:01.815Z,999.7
2023-03-27T02:29:01.897Z,999.7
2023-03-27T02:30:01.866Z,999.8
2023-03-27T02:31:34.737Z,999.7
2023-03-27T02:33:02.000Z,999.8
2023-03-27T02:34:01.817Z,999.8
2023-03-27T02:35:01.803Z,999.8
2023-03-27T02:36:01.863Z,999.8
2023-03-27T02:37:01.732Z,999.8
2023-03-27T02:38:01.678Z,999.9
2023-03-27T02:39:01.743Z,999.8
2023-03-27T02:40:01.729Z,999.9
2023-03-27T02:41:01.765Z,999.9
2023-03-27T02:42:01.731Z,999.8
2023-03-27T02:43:01.777Z,999.8
2023-03-27T02:44:01.689Z,999.8
2023-03-27T02:45:01.769Z,999.8
2023-03-27T02:46:01.785Z,999.8
2023-03-27T02:47:02.165Z,999.8
2023-03-27T02:48:02.367Z,999.8
2023-03-27T02:49:02.073Z,999.9
2023-03-27T02:50:02.273Z,999.9
2023-03-27T02:51:02.029Z,999.9
2023-03-27T02:52:02.139Z,999.9
2023-03-27T02:53:01.992Z,999.9
2023-03-27T02:54:02.090Z,999.8
2023-03-27T02:55:01.968Z,999.9
2023-03-27T02:56:02.070Z,999.9
2023-03-27T02:57:02.071Z,999.8
2023-03-27T02:58:01.992Z,999.8
2023-03-27T02:59:01.908Z,999.8
2023-03-27T03:00:03.120Z,999.9
2023-03-27T03:01:02.138Z,999.9
2023-03-27T03:02:02.338Z,999.9
2023-03-27T03:03:02.606Z,999.9
2023-03-27T03:04:02.484Z,1000
2023-03-27T03:05:02.391Z,1000
2023-03-27T03:06:02.456Z,1000
2023-03-27T03:07:02.418Z,1000
2023-03-27T03:08:02.340Z,1000.1
2023-03-27T03:09:02.454Z,1000
2023-03-27T03:10:02.437Z,1000
2023-03-27T03:11:02.384Z,1000
2023-03-27T03:12:02.594Z,1000
2023-03-27T03:13:02.485Z,1000.1
2023-03-27T03:14:02.444Z,1000.1
2023-03-27T03:15:02.539Z,1000
2023-03-27T03:16:02.381Z,1000
2023-03-27T03:17:02.900Z,1000
2023-03-27T03:18:01.757Z,1000
2023-03-27T03:19:02.662Z,1000
2023-03-27T03:20:02.605Z,1000
2023-03-27T03:21:02.705Z,1000
2023-03-27T03:22:02.586Z,1000
2023-03-27T03:23:02.715Z,1000
2023-03-27T03:24:02.636Z,1000
2023-03-27T03:25:02.642Z,1000.1
2023-03-27T03:26:02.626Z,1000
2023-03-27T03:27:02.687Z,1000.1
2023-03-27T03:28:02.601Z,1000.1
2023-03-27T03:29:02.703Z,1000.1
2023-03-27T03:30:02.610Z,1000.1
2023-03-27T03:31:02.784Z,1000.1
2023-03-27T03:33:02.217Z,1000.1
2023-03-27T03:34:02.068Z,1000.1
2023-03-27T03:35:02.320Z,1000
2023-03-27T03:36:02.080Z,1000.1
2023-03-27T03:37:02.058Z,1000.1
2023-03-27T03:38:01.932Z,1000.1
2023-03-27T03:39:02.014Z,1000
2023-03-27T03:40:01.936Z,1000.1
2023-03-27T03:41:02.044Z,1000
2023-03-27T03:42:01.963Z,1000
2023-03-27T03:43:02.046Z,1000
2023-03-27T03:44:01.934Z,1000
2023-03-27T03:45:02.050Z,1000
2023-03-27T03:46:02.008Z,1000.1
2023-03-27T03:47:02.235Z,1000.1
2023-03-27T03:48:02.584Z,1000
2023-03-27T03:49:02.376Z,1000.1
2023-03-27T03:50:02.340Z,1000
2023-03-27T03:51:02.365Z,1000
2023-03-27T03:52:05.273Z,1000
2023-03-27T03:53:01.947Z,1000
2023-03-27T03:54:02.027Z,1000
2023-03-27T03:55:01.806Z,1000.1
2023-03-27T03:56:01.913Z,1000.1
2023-03-27T03:57:02.076Z,1000
2023-03-27T03:58:02.056Z,1000.1
2023-03-27T03:59:02.039Z,1000
2023-03-27T04:00:02.680Z,1000
2023-03-27T04:01:02.554Z,1000
2023-03-27T04:02:02.250Z,1000.1
2023-03-27T04:03:02.438Z,1000
2023-03-27T04:04:02.275Z,1000
2023-03-27T04:05:10.873Z,1000.1
2023-03-27T04:06:02.518Z,1000
2023-03-27T04:07:02.640Z,1000.1
2023-03-27T04:08:02.499Z,1000
2023-03-27T04:09:02.620Z,1000
2023-03-27T04:10:02.553Z,1000
2023-03-27T04:11:02.666Z,1000
2023-03-27T04:12:02.565Z,1000.1
2023-03-27T04:13:02.729Z,1000.1
2023-03-27T04:14:02.583Z,1000.1
2023-03-27T04:15:02.765Z,1000
2023-03-27T04:16:02.719Z,1000
2023-03-27T04:18:02.665Z,1000
2023-03-27T04:19:02.464Z,1000.1
2023-03-27T04:20:02.483Z,1000
2023-03-27T04:21:02.513Z,1000.1
2023-03-27T04:22:02.396Z,1000.1
2023-03-27T04:23:02.467Z,1000
2023-03-27T04:24:02.995Z,1000
2023-03-27T04:25:01.673Z,1000
2023-03-27T04:26:02.214Z,1000
2023-03-27T04:27:01.992Z,1000
2023-03-27T04:28:01.898Z,1000
2023-03-27T04:29:01.857Z,1000
2023-03-27T04:30:01.932Z,1000
2023-03-27T04:31:01.861Z,999.9
2023-03-27T04:32:02.160Z,1000
2023-03-27T04:33:06.806Z,1000
2023-03-27T04:34:02.596Z,1000
2023-03-27T04:35:02.526Z,1000
2023-03-27T04:36:08.577Z,1000.1
2023-03-27T04:37:02.353Z,1000
2023-03-27T04:38:02.467Z,1000
2023-03-27T04:39:02.579Z,1000
2023-03-27T04:40:02.343Z,1000
2023-03-27T04:41:02.406Z,1000.1
2023-03-27T04:42:02.411Z,1000
2023-03-27T04:43:02.401Z,1000
2023-03-27T04:44:02.324Z,1000
2023-03-27T04:45:02.363Z,1000
2023-03-27T04:46:02.294Z,1000
2023-03-27T04:47:02.765Z,1000.1
2023-03-27T04:48:02.665Z,1000
2023-03-27T04:49:02.604Z,1000
2023-03-27T04:50:02.506Z,1000.1
2023-03-27T04:51:02.481Z,1000.1
2023-03-27T04:52:02.521Z,1000
2023-03-27T04:53:02.488Z,1000.1
2023-03-27T04:54:02.518Z,1000.1
2023-03-27T04:55:02.462Z,1000
2023-03-27T04:56:02.325Z,1000.1
2023-03-27T04:57:02.541Z,1000.1
2023-03-27T04:58:02.171Z,1000.1
2023-03-27T04:59:02.233Z,1000.1
2023-03-27T05:00:03.319Z,1000.1
2023-03-27T05:01:02.672Z,1000.1
2023-03-27T05:03:02.088Z,1000
2023-03-27T05:04:01.994Z,1000
2023-03-27T05:05:01.848Z,1000.1
2023-03-27T05:06:01.684Z,1000.1
2023-03-27T05:07:01.723Z,1000.1
2023-03-27T05:08:02.716Z,1000.1
2023-03-27T05:09:02.566Z,1000.1
2023-03-27T05:10:02.696Z,1000.1
2023-03-27T05:11:02.578Z,1000.1
2023-03-27T05:12:02.639Z,1000.1
2023-03-27T05:13:02.501Z,1000.2
2023-03-27T05:14:02.253Z,1000.1
2023-03-27T05:15:02.286Z,1000.1
2023-03-27T05:16:02.437Z,1000.2
2023-03-27T05:17:02.409Z,1000.1
2023-03-27T05:18:02.684Z,1000.1
2023-03-27T05:19:02.362Z,1000.1
2023-03-27T05:20:02.471Z,1000.1
2023-03-27T05:21:02.476Z,1000.1
2023-03-27T05:22:02.375Z,1000.2
2023-03-27T05:23:02.304Z,1000.2
2023-03-27T05:24:02.281Z,1000.1
2023-03-27T05:25:02.109Z,1000.1
2023-03-27T05:26:02.160Z,1000.1
2023-03-27T05:27:02.008Z,1000.1
2023-03-27T05:28:02.068Z,1000.1
2023-03-27T05:29:01.965Z,1000.1
2023-03-27T05:30:02.002Z,1000.1
2023-03-27T05:31:02.101Z,1000.2
2023-03-27T05:32:02.273Z,1000.1
2023-03-27T05:33:02.552Z,1000.1
2023-03-27T05:34:02.301Z,1000.2
2023-03-27T05:35:02.198Z,1000.2
2023-03-27T05:36:02.426Z,1000.1
2023-03-27T05:37:02.189Z,1000.2
2023-03-27T05:38:02.098Z,1000.1
2023-03-27T05:39:02.133Z,1000.2
2023-03-27T05:40:02.001Z,1000.2
2023-03-27T05:41:02.075Z,1000.2
2023-03-27T05:42:01.905Z,1000.2
2023-03-27T05:43:01.958Z,1000.2
2023-03-27T05:44:01.737Z,1000.2
2023-03-27T05:45:01.827Z,1000.2
2023-03-27T05:46:01.834Z,1000.2
2023-03-27T05:47:01.940Z,1000.2
2023-03-27T05:48:02.299Z,1000.3
2023-03-27T05:49:01.976Z,1000.2
2023-03-27T05:50:02.060Z,1000.2
2023-03-27T05:51:01.859Z,1000.3
2023-03-27T05:52:01.874Z,1000.3
2023-03-27T05:53:01.725Z,1000.3
2023-03-27T05:54:01.737Z,1000.3
2023-03-27T05:55:01.618Z,1000.3
2023-03-27T05:56:04.017Z,1000.2
2023-03-27T05:57:01.844Z,1000.3
2023-03-27T05:58:02.685Z,1000.3
2023-03-27T05:59:02.561Z,1000.3
2023-03-27T06:00:03.092Z,1000.4
2023-03-27T06:01:01.993Z,1000.3
2023-03-27T06:02:02.776Z,1000.4
2023-03-27T06:03:03.121Z,1000.4
2023-03-27T06:04:02.091Z,1000.4
2023-03-27T06:05:01.934Z,1000.4
2023-03-27T06:06:01.737Z,1000.4
2023-03-27T06:07:01.805Z,1000.4
2023-03-27T06:08:01.658Z,1000.4
2023-03-27T06:09:01.756Z,1000.4
2023-03-27T06:10:01.614Z,1000.4
2023-03-27T06:11:02.653Z,1000.4
2023-03-27T06:12:02.535Z,1000.5
2023-03-27T06:13:02.616Z,1000.5
2023-03-27T06:14:02.474Z,1000.5
2023-03-27T06:15:02.495Z,1000.5
2023-03-27T06:16:02.626Z,1000.6
2023-03-27T06:18:02.150Z,1000.6
2023-03-27T06:19:01.950Z,1000.5
2023-03-27T06:20:02.015Z,1000.5
2023-03-27T06:21:01.832Z,1000.6
2023-03-27T06:22:02.119Z,1000.5
2023-03-27T06:23:01.805Z,1000.5
2023-03-27T06:24:01.772Z,1000.6
2023-03-27T06:25:01.662Z,1000.6
2023-03-27T06:26:02.662Z,1000.6
2023-03-27T06:27:02.537Z,1000.6
2023-03-27T06:28:02.544Z,1000.7
2023-03-27T06:29:09.174Z,1000.7
2023-03-27T06:30:01.836Z,1000.8
2023-03-27T06:31:01.995Z,1000.8
2023-03-27T06:32:02.054Z,1000.8
2023-03-27T06:33:02.027Z,1000.9
2023-03-27T06:34:01.851Z,1000.9
2023-03-27T06:35:01.854Z,1000.9
2023-03-27T06:36:01.891Z,1000.9
2023-03-27T06:37:01.732Z,1000.9
2023-03-27T06:38:01.676Z,1001
2023-03-27T06:39:01.800Z,1001
2023-03-27T06:40:02.788Z,1001
2023-03-27T06:41:02.806Z,1001
2023-03-27T06:42:02.615Z,1001.1
2023-03-27T06:43:02.486Z,1001.1
2023-03-27T06:44:02.549Z,1001
2023-03-27T06:45:02.484Z,1001.1
2023-03-27T06:46:02.591Z,1001
2023-03-27T06:47:02.317Z,1001
2023-03-27T06:48:22.689Z,1001.1
2023-03-27T06:49:02.671Z,1001.1
2023-03-27T06:50:02.492Z,1001.1
2023-03-27T06:51:02.547Z,1001.1
2023-03-27T06:52:02.406Z,1001.1
2023-03-27T06:53:13.021Z,1001.1
2023-03-27T06:54:02.345Z,1001.2
2023-03-27T06:55:02.220Z,1001.1
2023-03-27T06:56:02.333Z,1001.1
2023-03-27T06:57:02.413Z,1001.1
2023-03-27T06:58:02.024Z,1001.1
2023-03-27T06:59:02.154Z,1001.1
2023-03-27T07:00:03.307Z,1001.2
2023-03-27T07:01:01.947Z,1001.2
2023-03-27T07:02:01.975Z,1001.2
2023-03-27T07:03:01.961Z,1001.2
2023-03-27T07:04:01.671Z,1001.2
2023-03-27T07:05:05.936Z,1001.2
2023-03-27T07:06:02.854Z,1001.3
2023-03-27T07:07:02.601Z,1001.2
2023-03-27T07:08:25.507Z,1001.2
2023-03-27T07:09:02.257Z,1001.3
2023-03-27T07:10:02.278Z,1001.3
2023-03-27T07:11:12.998Z,1001.4
2023-03-27T07:12:01.647Z,1001.4
2023-03-27T07:13:02.678Z,1001.3
2023-03-27T07:14:02.609Z,1001.3
2023-03-27T07:15:02.647Z,1001.4
2023-03-27T07:16:02.640Z,1001.4
2023-03-27T07:18:01.901Z,1001.4
2023-03-27T07:19:03.183Z,1001.4
2023-03-27T07:20:01.868Z,1001.4
2023-03-27T07:21:01.852Z,1001.5
2023-03-27T07:22:01.709Z,1001.5
2023-03-27T07:23:01.783Z,1001.5
2023-03-27T07:24:01.701Z,1001.5
2023-03-27T07:25:01.730Z,1001.4
2023-03-27T07:26:02.659Z,1001.4
2023-03-27T07:27:02.575Z,1001.5
2023-03-27T07:28:06.589Z,1001.5
2023-03-27T07:29:02.314Z,1001.5
2023-03-27T07:30:02.466Z,1001.5
2023-03-27T07:31:02.578Z,1001.6
2023-03-27T07:32:09.696Z,1001.6
2023-03-27T07:33:02.629Z,1001.6
2023-03-27T07:34:02.863Z,1001.6
2023-03-27T07:35:02.724Z,1001.7
2023-03-27T07:36:02.619Z,1001.6
2023-03-27T07:37:02.683Z,1001.7
2023-03-27T07:38:02.537Z,1001.6
2023-03-27T07:39:02.587Z,1001.7
2023-03-27T07:40:02.431Z,1001.7
2023-03-27T07:41:02.483Z,1001.7
2023-03-27T07:42:02.668Z,1001.7
2023-03-27T07:43:02.393Z,1001.7
2023-03-27T07:44:02.384Z,1001.8
2023-03-27T07:45:04.947Z,1001.7
2023-03-27T07:46:02.716Z,1001.7
2023-03-27T07:48:02.222Z,1001.7
2023-03-27T07:49:01.904Z,1001.7
2023-03-27T07:50:02.028Z,1001.7
2023-03-27T07:51:14.284Z,1001.7
2023-03-27T07:52:02.099Z,1001.8
2023-03-27T07:53:02.022Z,1001.8
2023-03-27T07:54:01.921Z,1001.8
2023-03-27T07:55:01.952Z,1001.7
2023-03-27T07:56:01.752Z,1001.7
2023-03-27T07:57:02.022Z,1001.8
2023-03-27T07:58:04.321Z,1001.8
2023-03-27T07:59:02.047Z,1001.8
2023-03-27T08:00:03.521Z,1001.8
2023-03-27T08:01:03.182Z,1001.8
2023-03-27T08:03:02.374Z,1001.9
2023-03-27T08:04:02.601Z,1001.9
2023-03-27T08:05:02.753Z,1001.8
2023-03-27T08:06:02.498Z,1001.9
2023-03-27T08:07:02.405Z,1001.9
2023-03-27T08:08:02.454Z,1001.9
2023-03-27T08:09:03.511Z,1001.9
2023-03-27T08:10:02.192Z,1001.9
2023-03-27T08:11:02.221Z,1001.9
2023-03-27T08:12:02.083Z,1002
2023-03-27T08:13:02.045Z,1002
2023-03-27T08:14:01.895Z,1002
2023-03-27T08:15:01.969Z,1002.1
2023-03-27T08:16:01.857Z,1002.1
2023-03-27T08:17:18.192Z,1002
2023-03-27T08:18:02.821Z,1002.1
2023-03-27T08:19:02.644Z,1002.1
2023-03-27T08:20:02.540Z,1002.1
2023-03-27T08:21:02.573Z,1002.1
2023-03-27T08:22:02.451Z,1002.1
2023-03-27T08:23:02.458Z,1002.2
2023-03-27T08:24:02.389Z,1002.1
2023-03-27T08:25:02.223Z,1002.1
2023-03-27T08:26:02.330Z,1002.1
2023-03-27T08:27:02.304Z,1002.1
2023-03-27T08:28:02.208Z,1002.2
2023-03-27T08:29:02.351Z,1002.1
2023-03-27T08:30:02.263Z,1002.2
2023-03-27T08:31:03.711Z,1002.2
2023-03-27T08:33:02.094Z,1002.3
2023-03-27T08:34:01.831Z,1002.2
2023-03-27T08:35:01.694Z,1002.3
2023-03-27T08:36:01.690Z,1002.3
2023-03-27T08:37:02.686Z,1002.3
2023-03-27T08:38:02.551Z,1002.3
2023-03-27T08:39:02.577Z,1002.3
2023-03-27T08:40:02.535Z,1002.4
2023-03-27T08:41:02.523Z,1002.3
2023-03-27T08:42:02.384Z,1002.4
2023-03-27T08:43:02.444Z,1002.3
2023-03-27T08:44:02.377Z,1002.4
2023-03-27T08:45:02.370Z,1002.5
2023-03-27T08:46:02.329Z,1002.5
2023-03-27T08:48:02.211Z,1002.6
2023-03-27T08:49:01.878Z,1002.6
2023-03-27T08:50:01.958Z,1002.6
2023-03-27T08:51:01.886Z,1002.6
2023-03-27T08:52:01.764Z,1002.7
2023-03-27T08:53:01.633Z,1002.7
2023-03-27T08:54:01.716Z,1002.6
2023-03-27T08:55:02.630Z,1002.7
2023-03-27T08:56:02.586Z,1002.7
2023-03-27T08:57:02.861Z,1002.8
2023-03-27T08:58:02.814Z,1002.8
2023-03-27T08:59:02.572Z,1002.8
2023-03-27T09:00:02.857Z,1002.8
2023-03-27T09:01:01.830Z,1002.9
2023-03-27T09:02:02.085Z,1002.9
2023-03-27T09:03:02.239Z,1002.9
2023-03-27T09:04:02.515Z,1002.9
2023-03-27T09:05:02.186Z,1002.9
2023-03-27T09:06:02.518Z,1002.9
2023-03-27T09:07:02.430Z,1003
2023-03-27T09:08:02.484Z,1003
2023-03-27T09:09:02.456Z,1002.9
2023-03-27T09:10:02.482Z,1002.9
2023-03-27T09:11:02.775Z,1003.1
2023-03-27T09:12:02.757Z,1003.1
2023-03-27T09:13:02.483Z,1003
2023-03-27T09:14:02.474Z,1003.1
2023-03-27T09:15:02.338Z,1003.1
2023-03-27T09:16:02.581Z,1003.1
2023-03-27T09:17:02.213Z,1003.2
2023-03-27T09:18:02.485Z,1003.2
2023-03-27T09:19:02.205Z,1003.1
2023-03-27T09:20:02.074Z,1003.1
2023-03-27T09:21:02.109Z,1003.1
2023-03-27T09:22:01.930Z,1003.2
2023-03-27T09:23:01.966Z,1003.2
2023-03-27T09:24:01.848Z,1003.3
2023-03-27T09:25:01.833Z,1003.3
2023-03-27T09:26:01.702Z,1003.4
2023-03-27T09:27:07.984Z,1003.3
2023-03-27T09:28:01.731Z,1003.2
2023-03-27T09:29:02.702Z,1003.3
2023-03-27T09:30:06.757Z,1003.3
2023-03-27T09:31:02.481Z,1003.2
2023-03-27T09:32:02.458Z,1003.4
2023-03-27T09:33:02.588Z,1003.3
2023-03-27T09:34:02.384Z,1003.3
2023-03-27T09:35:02.366Z,1003.5
2023-03-27T09:36:02.383Z,1003.4
2023-03-27T09:37:02.218Z,1003.5
2023-03-27T09:38:02.047Z,1003.6
2023-03-27T09:39:02.108Z,1003.6
2023-03-27T09:40:02.072Z,1003.6
2023-03-27T09:41:02.148Z,1003.6
2023-03-27T09:42:08.336Z,1003.6
2023-03-27T09:43:01.967Z,1003.6
2023-03-27T09:44:02.069Z,1003.7
2023-03-27T09:45:01.855Z,1003.7
2023-03-27T09:46:01.855Z,1003.8
2023-03-27T09:47:01.769Z,1003.8
2023-03-27T09:48:02.869Z,1003.8
2023-03-27T09:49:02.599Z,1003.8
2023-03-27T09:50:02.655Z,1003.8
2023-03-27T09:51:02.556Z,1003.9
2023-03-27T09:52:02.619Z,1003.9
2023-03-27T09:53:02.422Z,1004
2023-03-27T09:54:02.468Z,1004
2023-03-27T09:55:02.485Z,1003.9
2023-03-27T09:56:03.901Z,1004.1
2023-03-27T09:57:02.733Z,1004
2023-03-27T09:58:02.578Z,1004
2023-03-27T09:59:02.600Z,1004
2023-03-27T10:00:02.482Z,1004.1
2023-03-27T10:01:02.678Z,1004.1
2023-03-27T10:02:02.202Z,1004.1
2023-03-27T10:03:02.692Z,1004
2023-03-27T10:04:02.820Z,1004.2
2023-03-27T10:05:02.440Z,1004.2
2023-03-27T10:06:02.492Z,1004.2
2023-03-27T10:07:02.407Z,1004.1
2023-03-27T10:08:02.448Z,1004.2
2023-03-27T10:09:02.379Z,1004.3
2023-03-27T10:10:02.255Z,1004.4
2023-03-27T10:11:02.276Z,1004.3
2023-03-27T10:12:02.093Z,1004.4
2023-03-27T10:13:02.116Z,1004.3
2023-03-27T10:14:01.931Z,1004.4
2023-03-27T10:15:02.221Z,1004.4
2023-03-27T10:16:02.042Z,1004.4
2023-03-27T10:17:02.051Z,1004.5
2023-03-27T10:18:01.921Z,1004.4
2023-03-27T10:19:01.686Z,1004.4
2023-03-27T10:20:01.763Z,1004.5
2023-03-27T10:21:02.601Z,1004.5
2023-03-27T10:22:02.490Z,1004.5
2023-03-27T10:23:02.864Z,1004.4
2023-03-27T10:24:02.556Z,1004.4
2023-03-27T10:25:02.581Z,1004.5
2023-03-27T10:26:02.490Z,1004.5
2023-03-27T10:27:02.521Z,1004.5
2023-03-27T10:28:02.384Z,1004.6
2023-03-27T10:29:02.463Z,1004.7
2023-03-27T10:30:02.384Z,1004.6
2023-03-27T10:31:02.258Z,1004.7
2023-03-27T10:32:02.258Z,1004.6
2023-03-27T10:33:02.669Z,1004.7
2023-03-27T10:34:02.499Z,1004.6
2023-03-27T10:35:02.267Z,1004.6
2023-03-27T10:36:02.428Z,1004.6
2023-03-27T10:37:02.280Z,1004.7
2023-03-27T10:38:02.151Z,1004.6
2023-03-27T10:39:02.201Z,1004.7
2023-03-27T10:40:02.040Z,1004.7
2023-03-27T10:41:02.065Z,1004.7
2023-03-27T10:42:01.815Z,1004.7
2023-03-27T10:43:01.837Z,1004.7
2023-03-27T10:44:01.749Z,1004.6
2023-03-27T10:45:01.748Z,1004.6
2023-03-27T10:46:01.741Z,1004.6
2023-03-27T10:47:01.960Z,1004.8
2023-03-27T10:48:02.007Z,1004.7
2023-03-27T10:49:01.689Z,1004.8
2023-03-27T10:50:01.732Z,1004.7
2023-03-27T10:51:02.645Z,1004.7
2023-03-27T10:52:02.493Z,1004.8
2023-03-27T10:53:02.664Z,1004.8
2023-03-27T10:54:02.819Z,1004.8
2023-03-27T10:55:02.716Z,1004.7
2023-03-27T10:56:02.564Z,1004.8
2023-03-27T10:57:02.999Z,1004.8
2023-03-27T10:58:01.678Z,1004.9
2023-03-27T10:59:01.702Z,1004.8
2023-03-27T11:00:02.682Z,1004.9
2023-03-27T11:01:02.938Z,1004.7
2023-03-27T11:03:02.626Z,1004.8
2023-03-27T11:04:02.465Z,1004.9
2023-03-27T11:05:02.482Z,1004.9
2023-03-27T11:06:02.355Z,1004.9
2023-03-27T11:07:02.199Z,1004.9
2023-03-27T11:08:02.331Z,1004.9
2023-03-27T11:09:02.058Z,1005
2023-03-27T11:10:02.257Z,1004.9
2023-03-27T11:11:01.894Z,1004.9
2023-03-27T11:12:01.971Z,1005
2023-03-27T11:13:01.836Z,1004.9
2023-03-27T11:14:01.840Z,1004.9
2023-03-27T11:15:01.670Z,1005
2023-03-27T11:16:01.757Z,1004.9
2023-03-27T11:17:02.630Z,1004.9
2023-03-27T11:18:02.571Z,1005
2023-03-27T11:19:02.276Z,1005
2023-03-27T11:20:02.285Z,1004.9
2023-03-27T11:21:02.186Z,1005.2
2023-03-27T11:22:02.168Z,1005
2023-03-27T11:23:02.032Z,1005
2023-03-27T11:24:02.178Z,1005
2023-03-27T11:25:01.964Z,1005.1
2023-03-27T11:26:02.000Z,1005.1
2023-03-27T11:27:01.869Z,1005
2023-03-27T11:28:02.250Z,1005
2023-03-27T11:29:01.897Z,1005.1
2023-03-27T11:30:01.946Z,1005.2
2023-03-27T11:31:13.903Z,1005.1
2023-03-27T11:33:02.849Z,1005.2
2023-03-27T11:34:02.549Z,1005.2
2023-03-27T11:35:04.819Z,1005.2
2023-03-27T11:36:02.682Z,1005.2
2023-03-27T11:37:02.545Z,1005.3
2023-03-27T11:38:02.369Z,1005.4
2023-03-27T11:39:02.422Z,1005.2
2023-03-27T11:40:02.385Z,1005.4
2023-03-27T11:41:02.344Z,1005.3
2023-03-27T11:43:01.954Z,1005.5
2023-03-27T11:44:01.811Z,1005.4
2023-03-27T11:45:01.652Z,1005.5
2023-03-27T11:46:01.848Z,1005.7
2023-03-27T11:47:02.709Z,1005.5
2023-03-27T11:48:02.887Z,1005.5
2023-03-27T11:49:02.721Z,1005.5
2023-03-27T11:50:02.542Z,1005.5
2023-03-27T11:51:02.579Z,1005.6
2023-03-27T11:52:02.562Z,1005.5
2023-03-27T11:53:02.492Z,1005.6
2023-03-27T11:54:02.417Z,1005.7
2023-03-27T11:55:02.563Z,1005.6
2023-03-27T11:56:02.426Z,1005.7
2023-03-27T11:57:02.406Z,1005.7
2023-03-27T11:58:02.356Z,1005.6
2023-03-27T11:59:02.299Z,1005.7
2023-03-27T12:00:02.318Z,1005.9
2023-03-27T12:01:02.365Z,1005.7
2023-03-27T12:03:02.482Z,1005.8
2023-03-27T12:04:02.404Z,1005.9
2023-03-27T12:05:02.107Z,1005.9
2023-03-27T12:06:02.222Z,1005.9
2023-03-27T12:07:09.771Z,1005.8
2023-03-27T12:08:02.397Z,1005.9
2023-03-27T12:09:02.444Z,1005.9
2023-03-27T12:10:02.504Z,1005.9
2023-03-27T12:11:02.206Z,1005.9
2023-03-27T12:12:02.256Z,1005.9
2023-03-27T12:13:02.316Z,1006
2023-03-27T12:14:18.029Z,1005.9
2023-03-27T12:15:01.803Z,1006
2023-03-27T12:16:01.951Z,1006
2023-03-27T12:17:02.633Z,1006
2023-03-27T12:18:02.733Z,1005.9
2023-03-27T12:19:28.278Z,1006
2023-03-27T12:20:02.228Z,1006.1
2023-03-27T12:21:02.996Z,1006.1
2023-03-27T12:22:23.792Z,1006.2
2023-03-27T12:23:01.679Z,1006.1
2023-03-27T12:24:01.751Z,1006.2
2023-03-27T12:25:02.729Z,1006.1
2023-03-27T12:26:02.577Z,1006.2
2023-03-27T12:27:02.685Z,1006.2
2023-03-27T12:28:02.491Z,1006.3
2023-03-27T12:29:02.626Z,1006.2
2023-03-27T12:30:02.254Z,1006.3
2023-03-27T12:31:02.319Z,1006.4
2023-03-27T12:33:02.112Z,1006.4
2023-03-27T12:34:01.811Z,1006.4
2023-03-27T12:35:01.811Z,1006.4
2023-03-27T12:36:01.766Z,1006.4
2023-03-27T12:37:02.724Z,1006.5
2023-03-27T12:38:02.593Z,1006.4
2023-03-27T12:39:02.650Z,1006.4
2023-03-27T12:40:02.571Z,1006.5
2023-03-27T12:41:02.525Z,1006.5
2023-03-27T12:42:02.348Z,1006.5
2023-03-27T12:43:02.431Z,1006.5
2023-03-27T12:44:02.359Z,1006.4
2023-03-27T12:45:02.213Z,1006.5
2023-03-27T12:46:03.181Z,1006.6
2023-03-27T12:48:01.898Z,1006.6
2023-03-27T12:49:02.750Z,1006.6
2023-03-27T12:50:02.598Z,1006.7
2023-03-27T12:51:02.581Z,1006.8
2023-03-27T12:52:02.472Z,1006.8
2023-03-27T12:53:02.583Z,1006.8
2023-03-27T12:54:02.411Z,1006.8
2023-03-27T12:55:02.492Z,1006.8
2023-03-27T12:56:02.350Z,1006.8
2023-03-27T12:57:02.724Z,1006.9
2023-03-27T12:58:03.153Z,1006.8